sensor_id;sensor_type;location;lat;lon;timestamp;P1;durP1;ratioP1;P2;durP2;ratioP2
66175;SDS011;52977;44.816;20.538;2023-03-04T00:00:46;76.30;;;22.17;;
66175;SDS011;52977;44.816;20.538;2023-03-04T00:03:12;75.00;;;19.70;;
66175;SDS011;52977;44.816;20.538;2023-03-04T00:05:39;69.15;;;19.88;;
66175;SDS011;52977;44.816;20.538;2023-03-04T00:08:06;74.70;;;20.10;;
66175;SDS011;52977;44.816;20.538;2023-03-04T00:10:32;74.68;;;21.73;;
66175;SDS011;52977;44.816;20.538;2023-03-04T00:12:58;75.32;;;20.38;;
66175;SDS011;52977;44.816;20.538;2023-03-04T00:15:25;73.10;;;21.52;;
66175;SDS011;52977;44.816;20.538;2023-03-04T00:17:51;74.63;;;22.23;;
66175;SDS011;52977;44.816;20.538;2023-03-04T00:20:17;65.57;;;20.33;;
66175;SDS011;52977;44.816;20.538;2023-03-04T00:22:43;73.18;;;21.40;;
66175;SDS011;52977;44.816;20.538;2023-03-04T00:25:10;79.88;;;21.15;;
66175;SDS011;52977;44.816;20.538;2023-03-04T00:27:36;78.70;;;22.15;;
66175;SDS011;52977;44.816;20.538;2023-03-04T00:30:03;67.30;;;21.25;;
66175;SDS011;52977;44.816;20.538;2023-03-04T00:32:30;75.13;;;22.50;;
66175;SDS011;52977;44.816;20.538;2023-03-04T00:34:56;75.20;;;21.08;;
66175;SDS011;52977;44.816;20.538;2023-03-04T00:37:22;75.75;;;21.20;;
66175;SDS011;52977;44.816;20.538;2023-03-04T00:39:49;77.00;;;21.30;;
66175;SDS011;52977;44.816;20.538;2023-03-04T00:42:15;72.15;;;20.17;;
66175;SDS011;52977;44.816;20.538;2023-03-04T00:44:41;65.40;;;19.90;;
66175;SDS011;52977;44.816;20.538;2023-03-04T00:47:07;71.30;;;19.83;;
66175;SDS011;52977;44.816;20.538;2023-03-04T00:49:34;66.57;;;18.70;;
66175;SDS011;52977;44.816;20.538;2023-03-04T00:52:00;68.70;;;19.52;;
66175;SDS011;52977;44.816;20.538;2023-03-04T00:54:26;72.10;;;20.58;;
66175;SDS011;52977;44.816;20.538;2023-03-04T00:56:52;70.35;;;20.10;;
66175;SDS011;52977;44.816;20.538;2023-03-04T00:59:19;66.97;;;19.65;;
66175;SDS011;52977;44.816;20.538;2023-03-04T01:01:45;73.30;;;19.05;;
66175;SDS011;52977;44.816;20.538;2023-03-04T01:04:11;63.20;;;20.17;;
66175;SDS011;52977;44.816;20.538;2023-03-04T01:06:37;67.75;;;20.02;;
66175;SDS011;52977;44.816;20.538;2023-03-04T01:09:05;65.78;;;18.55;;
66175;SDS011;52977;44.816;20.538;2023-03-04T01:11:33;54.40;;;17.70;;
66175;SDS011;52977;44.816;20.538;2023-03-04T01:13:59;55.38;;;16.92;;
66175;SDS011;52977;44.816;20.538;2023-03-04T01:16:25;56.72;;;17.27;;
66175;SDS011;52977;44.816;20.538;2023-03-04T01:18:52;51.30;;;15.88;;
66175;SDS011;52977;44.816;20.538;2023-03-04T01:21:19;59.65;;;17.02;;
66175;SDS011;52977;44.816;20.538;2023-03-04T01:23:45;62.40;;;17.55;;
66175;SDS011;52977;44.816;20.538;2023-03-04T01:26:11;66.40;;;18.73;;
66175;SDS011;52977;44.816;20.538;2023-03-04T01:28:37;62.55;;;18.65;;
66175;SDS011;52977;44.816;20.538;2023-03-04T01:31:05;67.50;;;18.85;;
66175;SDS011;52977;44.816;20.538;2023-03-04T01:33:31;62.83;;;18.40;;
66175;SDS011;52977;44.816;20.538;2023-03-04T01:35:57;63.88;;;17.60;;
66175;SDS011;52977;44.816;20.538;2023-03-04T01:38:24;67.18;;;18.88;;
66175;SDS011;52977;44.816;20.538;2023-03-04T01:40:50;63.30;;;17.58;;
66175;SDS011;52977;44.816;20.538;2023-03-04T01:43:24;71.47;;;17.90;;
66175;SDS011;52977;44.816;20.538;2023-03-04T01:45:52;71.68;;;19.10;;
66175;SDS011;52977;44.816;20.538;2023-03-04T01:48:21;66.15;;;18.20;;
66175;SDS011;52977;44.816;20.538;2023-03-04T01:50:51;63.97;;;18.13;;
66175;SDS011;52977;44.816;20.538;2023-03-04T01:53:24;63.35;;;17.52;;
66175;SDS011;52977;44.816;20.538;2023-03-04T01:55:52;58.88;;;17.70;;
66175;SDS011;52977;44.816;20.538;2023-03-04T01:58:20;60.80;;;17.23;;
66175;SDS011;52977;44.816;20.538;2023-03-04T02:00:46;57.65;;;16.67;;
66175;SDS011;52977;44.816;20.538;2023-03-04T02:03:13;64.70;;;18.15;;
66175;SDS011;52977;44.816;20.538;2023-03-04T02:05:41;60.83;;;17.60;;
66175;SDS011;52977;44.816;20.538;2023-03-04T02:08:10;62.00;;;16.17;;
66175;SDS011;52977;44.816;20.538;2023-03-04T02:10:37;60.85;;;17.27;;
66175;SDS011;52977;44.816;20.538;2023-03-04T02:13:04;67.30;;;17.63;;
66175;SDS011;52977;44.816;20.538;2023-03-04T02:15:30;75.22;;;19.65;;
66175;SDS011;52977;44.816;20.538;2023-03-04T02:17:56;55.67;;;16.48;;
66175;SDS011;52977;44.816;20.538;2023-03-04T02:20:44;68.22;;;18.20;;
66175;SDS011;52977;44.816;20.538;2023-03-04T02:23:25;58.65;;;16.23;;
66175;SDS011;52977;44.816;20.538;2023-03-04T02:28:47;65.20;;;17.08;;
66175;SDS011;52977;44.816;20.538;2023-03-04T02:33:44;54.30;;;16.60;;
66175;SDS011;52977;44.816;20.538;2023-03-04T02:36:09;56.40;;;17.55;;
66175;SDS011;52977;44.816;20.538;2023-03-04T02:38:35;57.38;;;17.42;;
66175;SDS011;52977;44.816;20.538;2023-03-04T02:41:01;62.08;;;18.08;;
66175;SDS011;52977;44.816;20.538;2023-03-04T02:43:27;60.97;;;17.05;;
66175;SDS011;52977;44.816;20.538;2023-03-04T02:45:53;57.80;;;17.25;;
66175;SDS011;52977;44.816;20.538;2023-03-04T02:48:20;63.95;;;16.92;;
66175;SDS011;52977;44.816;20.538;2023-03-04T02:50:47;56.20;;;17.63;;
66175;SDS011;52977;44.816;20.538;2023-03-04T02:53:15;60.83;;;17.27;;
66175;SDS011;52977;44.816;20.538;2023-03-04T02:55:42;53.90;;;17.60;;
66175;SDS011;52977;44.816;20.538;2023-03-04T02:58:10;61.03;;;17.42;;
66175;SDS011;52977;44.816;20.538;2023-03-04T03:00:36;58.20;;;17.52;;
66175;SDS011;52977;44.816;20.538;2023-03-04T03:03:03;59.10;;;17.48;;
66175;SDS011;52977;44.816;20.538;2023-03-04T03:05:29;56.85;;;17.38;;
66175;SDS011;52977;44.816;20.538;2023-03-04T03:07:56;62.38;;;16.70;;
66175;SDS011;52977;44.816;20.538;2023-03-04T03:10:23;62.13;;;17.83;;
66175;SDS011;52977;44.816;20.538;2023-03-04T03:12:50;60.90;;;18.88;;
66175;SDS011;52977;44.816;20.538;2023-03-04T03:15:20;65.68;;;17.63;;
66175;SDS011;52977;44.816;20.538;2023-03-04T03:17:47;66.53;;;17.88;;
66175;SDS011;52977;44.816;20.538;2023-03-04T03:20:14;75.85;;;19.65;;
66175;SDS011;52977;44.816;20.538;2023-03-04T03:22:41;74.45;;;19.70;;
66175;SDS011;52977;44.816;20.538;2023-03-04T03:25:08;73.72;;;20.00;;
66175;SDS011;52977;44.816;20.538;2023-03-04T03:27:36;76.72;;;19.60;;
66175;SDS011;52977;44.816;20.538;2023-03-04T03:30:03;69.88;;;20.08;;
66175;SDS011;52977;44.816;20.538;2023-03-04T03:32:30;73.63;;;20.38;;
66175;SDS011;52977;44.816;20.538;2023-03-04T03:34:57;66.82;;;19.63;;
66175;SDS011;52977;44.816;20.538;2023-03-04T03:37:23;73.38;;;21.20;;
66175;SDS011;52977;44.816;20.538;2023-03-04T03:39:49;69.18;;;19.67;;
66175;SDS011;52977;44.816;20.538;2023-03-04T03:42:15;70.68;;;20.88;;
66175;SDS011;52977;44.816;20.538;2023-03-04T03:44:41;76.13;;;20.60;;
66175;SDS011;52977;44.816;20.538;2023-03-04T03:47:06;80.03;;;23.55;;
66175;SDS011;52977;44.816;20.538;2023-03-04T03:49:32;84.35;;;20.88;;
66175;SDS011;52977;44.816;20.538;2023-03-04T03:51:58;73.05;;;20.85;;
66175;SDS011;52977;44.816;20.538;2023-03-04T03:54:24;75.45;;;20.92;;
66175;SDS011;52977;44.816;20.538;2023-03-04T03:56:50;74.10;;;22.70;;
66175;SDS011;52977;44.816;20.538;2023-03-04T03:59:16;77.55;;;21.05;;
66175;SDS011;52977;44.816;20.538;2023-03-04T04:01:43;77.00;;;21.17;;
66175;SDS011;52977;44.816;20.538;2023-03-04T04:04:08;75.32;;;22.90;;
66175;SDS011;52977;44.816;20.538;2023-03-04T04:06:34;72.78;;;20.92;;
66175;SDS011;52977;44.816;20.538;2023-03-04T04:09:00;76.43;;;21.58;;
66175;SDS011;52977;44.816;20.538;2023-03-04T04:11:26;71.68;;;20.35;;
66175;SDS011;52977;44.816;20.538;2023-03-04T04:13:52;76.30;;;22.13;;
66175;SDS011;52977;44.816;20.538;2023-03-04T04:16:17;67.97;;;20.70;;
66175;SDS011;52977;44.816;20.538;2023-03-04T04:18:45;73.13;;;21.77;;
66175;SDS011;52977;44.816;20.538;2023-03-04T04:21:12;81.85;;;22.80;;
66175;SDS011;52977;44.816;20.538;2023-03-04T04:23:39;69.95;;;21.23;;
66175;SDS011;52977;44.816;20.538;2023-03-04T04:26:07;74.15;;;23.92;;
66175;SDS011;52977;44.816;20.538;2023-03-04T04:28:33;79.35;;;23.48;;
66175;SDS011;52977;44.816;20.538;2023-03-04T04:30:58;71.45;;;22.20;;
66175;SDS011;52977;44.816;20.538;2023-03-04T04:33:24;69.40;;;20.50;;
66175;SDS011;52977;44.816;20.538;2023-03-04T04:35:50;67.18;;;22.05;;
66175;SDS011;52977;44.816;20.538;2023-03-04T04:38:16;75.30;;;21.42;;
66175;SDS011;52977;44.816;20.538;2023-03-04T04:40:42;73.03;;;21.65;;
66175;SDS011;52977;44.816;20.538;2023-03-04T04:43:07;76.80;;;20.92;;
66175;SDS011;52977;44.816;20.538;2023-03-04T04:45:33;72.65;;;19.88;;
66175;SDS011;52977;44.816;20.538;2023-03-04T04:47:59;63.03;;;19.60;;
66175;SDS011;52977;44.816;20.538;2023-03-04T04:50:25;74.72;;;21.85;;
66175;SDS011;52977;44.816;20.538;2023-03-04T04:52:51;69.70;;;20.08;;
66175;SDS011;52977;44.816;20.538;2023-03-04T04:55:17;71.55;;;21.02;;
66175;SDS011;52977;44.816;20.538;2023-03-04T04:57:42;63.72;;;19.77;;
66175;SDS011;52977;44.816;20.538;2023-03-04T05:00:08;67.00;;;20.70;;
66175;SDS011;52977;44.816;20.538;2023-03-04T05:02:35;70.35;;;19.73;;
66175;SDS011;52977;44.816;20.538;2023-03-04T05:05:05;69.70;;;19.80;;
66175;SDS011;52977;44.816;20.538;2023-03-04T05:07:32;69.87;;;20.33;;
66175;SDS011;52977;44.816;20.538;2023-03-04T05:09:58;71.10;;;19.13;;
66175;SDS011;52977;44.816;20.538;2023-03-04T05:12:24;63.17;;;18.30;;
66175;SDS011;52977;44.816;20.538;2023-03-04T05:14:50;68.20;;;19.50;;
66175;SDS011;52977;44.816;20.538;2023-03-04T05:17:17;77.28;;;20.65;;
66175;SDS011;52977;44.816;20.538;2023-03-04T05:19:46;70.90;;;19.27;;
66175;SDS011;52977;44.816;20.538;2023-03-04T05:22:12;64.03;;;20.30;;
66175;SDS011;52977;44.816;20.538;2023-03-04T05:24:38;59.38;;;17.67;;
66175;SDS011;52977;44.816;20.538;2023-03-04T05:27:04;63.50;;;17.88;;
66175;SDS011;52977;44.816;20.538;2023-03-04T05:29:30;64.90;;;18.27;;
66175;SDS011;52977;44.816;20.538;2023-03-04T05:31:56;65.35;;;17.20;;
66175;SDS011;52977;44.816;20.538;2023-03-04T05:34:22;69.43;;;18.60;;
66175;SDS011;52977;44.816;20.538;2023-03-04T05:36:48;65.32;;;19.20;;
66175;SDS011;52977;44.816;20.538;2023-03-04T05:39:14;64.97;;;20.05;;
66175;SDS011;52977;44.816;20.538;2023-03-04T05:41:39;63.17;;;18.80;;
66175;SDS011;52977;44.816;20.538;2023-03-04T05:44:05;66.68;;;18.75;;
66175;SDS011;52977;44.816;20.538;2023-03-04T05:46:31;65.38;;;19.17;;
66175;SDS011;52977;44.816;20.538;2023-03-04T05:48:56;66.97;;;19.50;;
66175;SDS011;52977;44.816;20.538;2023-03-04T05:51:22;64.90;;;20.17;;
66175;SDS011;52977;44.816;20.538;2023-03-04T05:53:48;65.65;;;20.33;;
66175;SDS011;52977;44.816;20.538;2023-03-04T05:56:15;62.95;;;20.42;;
66175;SDS011;52977;44.816;20.538;2023-03-04T05:58:43;70.35;;;19.80;;
66175;SDS011;52977;44.816;20.538;2023-03-04T06:01:08;70.63;;;20.88;;
66175;SDS011;52977;44.816;20.538;2023-03-04T06:03:35;68.68;;;19.77;;
66175;SDS011;52977;44.816;20.538;2023-03-04T06:06:02;62.58;;;19.40;;
66175;SDS011;52977;44.816;20.538;2023-03-04T06:08:28;69.55;;;20.52;;
66175;SDS011;52977;44.816;20.538;2023-03-04T06:10:55;58.65;;;18.27;;
66175;SDS011;52977;44.816;20.538;2023-03-04T06:13:21;70.40;;;19.02;;
66175;SDS011;52977;44.816;20.538;2023-03-04T06:15:52;58.13;;;19.05;;
66175;SDS011;52977;44.816;20.538;2023-03-04T06:18:20;62.88;;;19.38;;
66175;SDS011;52977;44.816;20.538;2023-03-04T06:20:46;72.53;;;20.63;;
66175;SDS011;52977;44.816;20.538;2023-03-04T06:23:12;78.50;;;22.00;;
66175;SDS011;52977;44.816;20.538;2023-03-04T06:25:39;66.57;;;20.73;;
66175;SDS011;52977;44.816;20.538;2023-03-04T06:28:05;61.95;;;19.85;;
66175;SDS011;52977;44.816;20.538;2023-03-04T06:30:31;63.28;;;20.38;;
66175;SDS011;52977;44.816;20.538;2023-03-04T06:32:57;61.55;;;19.35;;
66175;SDS011;52977;44.816;20.538;2023-03-04T06:35:24;67.95;;;20.52;;
66175;SDS011;52977;44.816;20.538;2023-03-04T06:37:50;64.75;;;20.42;;
66175;SDS011;52977;44.816;20.538;2023-03-04T06:40:16;58.60;;;18.63;;
66175;SDS011;52977;44.816;20.538;2023-03-04T06:42:42;63.15;;;18.50;;
66175;SDS011;52977;44.816;20.538;2023-03-04T06:45:09;65.47;;;20.27;;
66175;SDS011;52977;44.816;20.538;2023-03-04T06:47:36;57.35;;;18.67;;
66175;SDS011;52977;44.816;20.538;2023-03-04T06:50:03;58.97;;;18.13;;
66175;SDS011;52977;44.816;20.538;2023-03-04T06:52:30;51.13;;;18.88;;
66175;SDS011;52977;44.816;20.538;2023-03-04T06:54:56;59.03;;;18.60;;
66175;SDS011;52977;44.816;20.538;2023-03-04T06:57:22;47.92;;;17.55;;
66175;SDS011;52977;44.816;20.538;2023-03-04T06:59:49;56.72;;;17.35;;
66175;SDS011;52977;44.816;20.538;2023-03-04T07:02:15;59.03;;;18.50;;
66175;SDS011;52977;44.816;20.538;2023-03-04T07:04:41;57.38;;;18.98;;
66175;SDS011;52977;44.816;20.538;2023-03-04T07:07:07;55.85;;;18.80;;
66175;SDS011;52977;44.816;20.538;2023-03-04T07:09:33;58.80;;;19.42;;
66175;SDS011;52977;44.816;20.538;2023-03-04T07:11:59;57.70;;;20.00;;
66175;SDS011;52977;44.816;20.538;2023-03-04T07:14:25;65.53;;;20.55;;
66175;SDS011;52977;44.816;20.538;2023-03-04T07:16:52;68.75;;;19.25;;
66175;SDS011;52977;44.816;20.538;2023-03-04T07:19:18;58.80;;;18.85;;
66175;SDS011;52977;44.816;20.538;2023-03-04T07:21:44;66.03;;;20.48;;
66175;SDS011;52977;44.816;20.538;2023-03-04T07:24:11;66.07;;;20.33;;
66175;SDS011;52977;44.816;20.538;2023-03-04T07:26:37;59.50;;;19.30;;
66175;SDS011;52977;44.816;20.538;2023-03-04T07:29:03;62.78;;;18.95;;
66175;SDS011;52977;44.816;20.538;2023-03-04T07:31:30;64.45;;;18.45;;
66175;SDS011;52977;44.816;20.538;2023-03-04T07:34:02;53.70;;;17.50;;
66175;SDS011;52977;44.816;20.538;2023-03-04T07:36:30;62.35;;;18.92;;
66175;SDS011;52977;44.816;20.538;2023-03-04T07:38:56;61.63;;;19.42;;
66175;SDS011;52977;44.816;20.538;2023-03-04T07:41:24;59.17;;;18.77;;
66175;SDS011;52977;44.816;20.538;2023-03-04T07:43:51;66.07;;;20.85;;
66175;SDS011;52977;44.816;20.538;2023-03-04T07:46:18;68.25;;;21.73;;
66175;SDS011;52977;44.816;20.538;2023-03-04T07:48:44;71.25;;;22.05;;
66175;SDS011;52977;44.816;20.538;2023-03-04T07:51:15;68.22;;;22.00;;
66175;SDS011;52977;44.816;20.538;2023-03-04T07:53:44;61.75;;;21.33;;
66175;SDS011;52977;44.816;20.538;2023-03-04T07:56:14;58.08;;;18.70;;
66175;SDS011;52977;44.816;20.538;2023-03-04T07:58:43;58.73;;;19.40;;
66175;SDS011;52977;44.816;20.538;2023-03-04T08:01:11;59.78;;;19.17;;
66175;SDS011;52977;44.816;20.538;2023-03-04T08:03:39;54.83;;;19.10;;
66175;SDS011;52977;44.816;20.538;2023-03-04T08:06:06;61.92;;;19.38;;
66175;SDS011;52977;44.816;20.538;2023-03-04T08:08:34;62.03;;;20.05;;
66175;SDS011;52977;44.816;20.538;2023-03-04T08:11:08;55.50;;;18.75;;
66175;SDS011;52977;44.816;20.538;2023-03-04T08:13:39;62.15;;;22.63;;
66175;SDS011;52977;44.816;20.538;2023-03-04T08:16:06;70.72;;;21.98;;
66175;SDS011;52977;44.816;20.538;2023-03-04T08:18:32;66.80;;;21.83;;
66175;SDS011;52977;44.816;20.538;2023-03-04T08:20:59;63.97;;;20.33;;
66175;SDS011;52977;44.816;20.538;2023-03-04T08:23:25;59.60;;;20.00;;
66175;SDS011;52977;44.816;20.538;2023-03-04T08:25:52;63.83;;;20.45;;
66175;SDS011;52977;44.816;20.538;2023-03-04T08:28:18;64.00;;;21.15;;
66175;SDS011;52977;44.816;20.538;2023-03-04T08:30:44;66.35;;;21.63;;
66175;SDS011;52977;44.816;20.538;2023-03-04T08:33:21;63.17;;;20.15;;
66175;SDS011;52977;44.816;20.538;2023-03-04T08:35:47;60.42;;;19.65;;
66175;SDS011;52977;44.816;20.538;2023-03-04T08:38:13;60.03;;;20.15;;
66175;SDS011;52977;44.816;20.538;2023-03-04T08:40:40;67.25;;;22.95;;
66175;SDS011;52977;44.816;20.538;2023-03-04T08:43:06;71.25;;;22.60;;
66175;SDS011;52977;44.816;20.538;2023-03-04T08:45:33;67.40;;;21.77;;
66175;SDS011;52977;44.816;20.538;2023-03-04T08:48:00;61.67;;;22.10;;
66175;SDS011;52977;44.816;20.538;2023-03-04T08:50:26;57.75;;;19.42;;
66175;SDS011;52977;44.816;20.538;2023-03-04T08:52:53;63.60;;;20.75;;
66175;SDS011;52977;44.816;20.538;2023-03-04T08:55:19;65.97;;;22.15;;
66175;SDS011;52977;44.816;20.538;2023-03-04T08:57:45;56.72;;;20.95;;
66175;SDS011;52977;44.816;20.538;2023-03-04T09:00:11;57.20;;;20.55;;
66175;SDS011;52977;44.816;20.538;2023-03-04T09:02:38;58.35;;;20.73;;
66175;SDS011;52977;44.816;20.538;2023-03-04T09:05:04;55.15;;;19.05;;
66175;SDS011;52977;44.816;20.538;2023-03-04T09:07:31;53.97;;;18.77;;
66175;SDS011;52977;44.816;20.538;2023-03-04T09:09:57;59.88;;;20.75;;
66175;SDS011;52977;44.816;20.538;2023-03-04T09:12:24;59.83;;;20.40;;
66175;SDS011;52977;44.816;20.538;2023-03-04T09:14:50;58.70;;;20.33;;
66175;SDS011;52977;44.816;20.538;2023-03-04T09:17:16;63.92;;;21.25;;
66175;SDS011;52977;44.816;20.538;2023-03-04T09:19:46;58.40;;;21.05;;
66175;SDS011;52977;44.816;20.538;2023-03-04T09:22:13;55.22;;;20.67;;
66175;SDS011;52977;44.816;20.538;2023-03-04T09:24:39;63.35;;;21.10;;
66175;SDS011;52977;44.816;20.538;2023-03-04T09:27:05;56.55;;;20.15;;
66175;SDS011;52977;44.816;20.538;2023-03-04T09:29:31;51.13;;;20.50;;
66175;SDS011;52977;44.816;20.538;2023-03-04T09:31:58;59.90;;;21.02;;
66175;SDS011;52977;44.816;20.538;2023-03-04T09:34:24;53.75;;;20.63;;
66175;SDS011;52977;44.816;20.538;2023-03-04T09:36:51;57.75;;;21.42;;
66175;SDS011;52977;44.816;20.538;2023-03-04T09:39:17;48.22;;;18.45;;
66175;SDS011;52977;44.816;20.538;2023-03-04T09:41:46;55.70;;;20.63;;
66175;SDS011;52977;44.816;20.538;2023-03-04T09:44:25;53.65;;;19.48;;
66175;SDS011;52977;44.816;20.538;2023-03-04T09:46:58;54.83;;;20.10;;
66175;SDS011;52977;44.816;20.538;2023-03-04T09:49:27;50.85;;;20.45;;
66175;SDS011;52977;44.816;20.538;2023-03-04T09:54:54;50.92;;;19.20;;
66175;SDS011;52977;44.816;20.538;2023-03-04T09:57:38;48.35;;;18.40;;
66175;SDS011;52977;44.816;20.538;2023-03-04T10:03:05;52.22;;;18.42;;
66175;SDS011;52977;44.816;20.538;2023-03-04T10:05:38;49.38;;;17.92;;
66175;SDS011;52977;44.816;20.538;2023-03-04T10:10:40;48.28;;;17.23;;
66175;SDS011;52977;44.816;20.538;2023-03-04T10:13:28;49.53;;;18.20;;
66175;SDS011;52977;44.816;20.538;2023-03-04T10:16:10;46.97;;;17.23;;
66175;SDS011;52977;44.816;20.538;2023-03-04T10:18:44;42.92;;;16.08;;
66175;SDS011;52977;44.816;20.538;2023-03-04T10:21:25;48.90;;;17.40;;
66175;SDS011;52977;44.816;20.538;2023-03-04T10:23:57;45.80;;;17.92;;
66175;SDS011;52977;44.816;20.538;2023-03-04T10:26:30;40.50;;;16.23;;
66175;SDS011;52977;44.816;20.538;2023-03-04T10:28:58;39.38;;;15.90;;
66175;SDS011;52977;44.816;20.538;2023-03-04T10:31:34;43.53;;;16.55;;
66175;SDS011;52977;44.816;20.538;2023-03-04T10:34:03;43.03;;;16.05;;
66175;SDS011;52977;44.816;20.538;2023-03-04T10:44:51;39.90;;;16.50;;
66175;SDS011;52977;44.816;20.538;2023-03-04T10:47:24;41.17;;;17.30;;
66175;SDS011;52977;44.816;20.538;2023-03-04T10:49:53;41.10;;;17.13;;
66175;SDS011;52977;44.816;20.538;2023-03-04T10:52:26;41.58;;;17.85;;
66175;SDS011;52977;44.816;20.538;2023-03-04T10:54:55;44.10;;;17.17;;
66175;SDS011;52977;44.816;20.538;2023-03-04T11:00:24;38.05;;;16.42;;
66175;SDS011;52977;44.816;20.538;2023-03-04T11:02:48;42.88;;;16.80;;
66175;SDS011;52977;44.816;20.538;2023-03-04T11:05:19;37.38;;;16.00;;
66175;SDS011;52977;44.816;20.538;2023-03-04T11:13:21;31.98;;;13.60;;
66175;SDS011;52977;44.816;20.538;2023-03-04T11:18:40;36.05;;;14.60;;
66175;SDS011;52977;44.816;20.538;2023-03-04T11:21:30;33.85;;;14.02;;
66175;SDS011;52977;44.816;20.538;2023-03-04T11:24:09;34.20;;;13.98;;
66175;SDS011;52977;44.816;20.538;2023-03-04T11:26:44;39.70;;;15.50;;
66175;SDS011;52977;44.816;20.538;2023-03-04T11:34:55;36.50;;;14.23;;
66175;SDS011;52977;44.816;20.538;2023-03-04T11:42:55;36.58;;;15.88;;
66175;SDS011;52977;44.816;20.538;2023-03-04T11:51:13;36.08;;;14.75;;
66175;SDS011;52977;44.816;20.538;2023-03-04T11:56:52;36.45;;;15.35;;
66175;SDS011;52977;44.816;20.538;2023-03-04T12:02:20;45.70;;;16.35;;
66175;SDS011;52977;44.816;20.538;2023-03-04T12:15:36;42.45;;;15.88;;
66175;SDS011;52977;44.816;20.538;2023-03-04T12:34:01;32.47;;;13.07;;
66175;SDS011;52977;44.816;20.538;2023-03-04T12:44:55;33.35;;;13.02;;
66175;SDS011;52977;44.816;20.538;2023-03-04T12:54:16;38.15;;;14.10;;
66175;SDS011;52977;44.816;20.538;2023-03-04T12:56:52;32.45;;;13.57;;
66175;SDS011;52977;44.816;20.538;2023-03-04T12:59:30;34.28;;;13.48;;
66175;SDS011;52977;44.816;20.538;2023-03-04T13:05:14;34.85;;;13.60;;
66175;SDS011;52977;44.816;20.538;2023-03-04T13:07:54;34.60;;;13.68;;
66175;SDS011;52977;44.816;20.538;2023-03-04T13:10:28;37.33;;;13.38;;
66175;SDS011;52977;44.816;20.538;2023-03-04T13:12:55;37.58;;;13.80;;
66175;SDS011;52977;44.816;20.538;2023-03-04T13:17:50;36.58;;;14.40;;
66175;SDS011;52977;44.816;20.538;2023-03-04T13:20:24;32.30;;;13.55;;
66175;SDS011;52977;44.816;20.538;2023-03-04T13:25:46;35.85;;;13.70;;
66175;SDS011;52977;44.816;20.538;2023-03-04T13:28:16;35.92;;;13.73;;
66175;SDS011;52977;44.816;20.538;2023-03-04T13:43:38;33.42;;;13.43;;
66175;SDS011;52977;44.816;20.538;2023-03-04T13:53:52;34.22;;;13.93;;
66175;SDS011;52977;44.816;20.538;2023-03-04T13:56:20;34.20;;;14.68;;
66175;SDS011;52977;44.816;20.538;2023-03-04T13:58:52;40.20;;;14.35;;
66175;SDS011;52977;44.816;20.538;2023-03-04T14:01:36;39.30;;;13.32;;
66175;SDS011;52977;44.816;20.538;2023-03-04T14:06:45;41.17;;;14.43;;
66175;SDS011;52977;44.816;20.538;2023-03-04T14:09:19;31.05;;;13.15;;
66175;SDS011;52977;44.816;20.538;2023-03-04T14:11:47;33.55;;;13.23;;
66175;SDS011;52977;44.816;20.538;2023-03-04T14:14:16;34.35;;;13.68;;
66175;SDS011;52977;44.816;20.538;2023-03-04T14:16:46;32.75;;;12.90;;
66175;SDS011;52977;44.816;20.538;2023-03-04T14:19:25;29.38;;;13.15;;
66175;SDS011;52977;44.816;20.538;2023-03-04T14:21:54;28.17;;;12.23;;
66175;SDS011;52977;44.816;20.538;2023-03-04T14:24:22;31.00;;;12.38;;
66175;SDS011;52977;44.816;20.538;2023-03-04T14:26:49;36.00;;;14.65;;
66175;SDS011;52977;44.816;20.538;2023-03-04T14:29:28;49.10;;;15.85;;
66175;SDS011;52977;44.816;20.538;2023-03-04T14:31:57;38.38;;;15.05;;
66175;SDS011;52977;44.816;20.538;2023-03-04T14:34:28;42.40;;;13.95;;
66175;SDS011;52977;44.816;20.538;2023-03-04T14:37:02;38.63;;;15.43;;
66175;SDS011;52977;44.816;20.538;2023-03-04T14:39:41;47.15;;;19.23;;
66175;SDS011;52977;44.816;20.538;2023-03-04T14:42:08;42.13;;;17.23;;
66175;SDS011;52977;44.816;20.538;2023-03-04T14:44:38;36.03;;;14.43;;
66175;SDS011;52977;44.816;20.538;2023-03-04T14:47:11;31.88;;;13.50;;
66175;SDS011;52977;44.816;20.538;2023-03-04T14:49:46;39.60;;;15.93;;
66175;SDS011;52977;44.816;20.538;2023-03-04T14:52:26;38.40;;;15.95;;
66175;SDS011;52977;44.816;20.538;2023-03-04T14:54:58;36.90;;;15.27;;
66175;SDS011;52977;44.816;20.538;2023-03-04T14:57:42;38.90;;;14.40;;
66175;SDS011;52977;44.816;20.538;2023-03-04T15:00:14;41.92;;;15.52;;
66175;SDS011;52977;44.816;20.538;2023-03-04T15:02:50;31.58;;;13.07;;
66175;SDS011;52977;44.816;20.538;2023-03-04T15:05:37;30.63;;;11.30;;
66175;SDS011;52977;44.816;20.538;2023-03-04T15:08:04;36.42;;;12.25;;
66175;SDS011;52977;44.816;20.538;2023-03-04T15:10:42;32.55;;;11.75;;
66175;SDS011;52977;44.816;20.538;2023-03-04T15:13:08;40.08;;;13.07;;
66175;SDS011;52977;44.816;20.538;2023-03-04T15:15:37;34.38;;;12.20;;
66175;SDS011;52977;44.816;20.538;2023-03-04T15:20:54;32.72;;;11.50;;
66175;SDS011;52977;44.816;20.538;2023-03-04T15:23:30;33.70;;;11.77;;
66175;SDS011;52977;44.816;20.538;2023-03-04T15:26:02;30.55;;;11.27;;
66175;SDS011;52977;44.816;20.538;2023-03-04T15:28:32;35.47;;;10.95;;
66175;SDS011;52977;44.816;20.538;2023-03-04T15:31:00;31.50;;;11.57;;
66175;SDS011;52977;44.816;20.538;2023-03-04T15:33:26;34.80;;;13.93;;
66175;SDS011;52977;44.816;20.538;2023-03-04T15:35:57;31.80;;;12.05;;
66175;SDS011;52977;44.816;20.538;2023-03-04T15:38:25;28.92;;;12.55;;
66175;SDS011;52977;44.816;20.538;2023-03-04T15:40:54;32.97;;;12.32;;
66175;SDS011;52977;44.816;20.538;2023-03-04T15:43:21;34.13;;;12.43;;
66175;SDS011;52977;44.816;20.538;2023-03-04T15:45:48;40.58;;;14.23;;
66175;SDS011;52977;44.816;20.538;2023-03-04T15:48:16;35.67;;;13.80;;
66175;SDS011;52977;44.816;20.538;2023-03-04T15:50:44;36.05;;;13.10;;
66175;SDS011;52977;44.816;20.538;2023-03-04T15:53:16;36.75;;;12.93;;
66175;SDS011;52977;44.816;20.538;2023-03-04T15:55:52;31.35;;;12.00;;
66175;SDS011;52977;44.816;20.538;2023-03-04T15:58:19;30.30;;;11.73;;
66175;SDS011;52977;44.816;20.538;2023-03-04T16:00:45;41.30;;;13.98;;
66175;SDS011;52977;44.816;20.538;2023-03-04T16:03:12;36.53;;;12.48;;
66175;SDS011;52977;44.816;20.538;2023-03-04T16:05:41;30.80;;;12.05;;
66175;SDS011;52977;44.816;20.538;2023-03-04T16:08:10;35.47;;;12.35;;
66175;SDS011;52977;44.816;20.538;2023-03-04T16:10:39;38.53;;;14.30;;
66175;SDS011;52977;44.816;20.538;2023-03-04T16:13:07;34.65;;;13.40;;
66175;SDS011;52977;44.816;20.538;2023-03-04T16:15:38;37.28;;;14.63;;
66175;SDS011;52977;44.816;20.538;2023-03-04T16:18:05;39.35;;;15.25;;
66175;SDS011;52977;44.816;20.538;2023-03-04T16:20:32;40.78;;;16.30;;
66175;SDS011;52977;44.816;20.538;2023-03-04T16:22:59;39.40;;;16.48;;
66175;SDS011;52977;44.816;20.538;2023-03-04T16:25:26;45.70;;;16.27;;
66175;SDS011;52977;44.816;20.538;2023-03-04T16:27:53;39.35;;;15.90;;